createdAt,value
2022-11-01T00:02:08.888Z,88.08
2022-11-01T00:04:36.805Z,87.68
2022-11-01T00:07:05.496Z,87.30
2022-11-01T00:09:33.263Z,87.76
2022-11-01T00:12:01.003Z,87.42
2022-11-01T00:14:28.582Z,86.98
2022-11-01T00:16:56.241Z,87.13
2022-11-01T00:19:28.644Z,87.25
2022-11-01T00:21:56.994Z,87.90
2022-11-01T00:24:25.397Z,87.70
2022-11-01T00:26:54.749Z,87.27
2022-11-01T00:29:22.582Z,87.04
2022-11-01T00:31:50.428Z,86.71
2022-11-01T00:34:18.311Z,86.75
2022-11-01T00:36:46.935Z,87.65
2022-11-01T00:39:14.980Z,87.00
2022-11-01T00:41:42.805Z,86.79
2022-11-01T00:44:10.600Z,86.98
2022-11-01T00:46:38.584Z,86.47
2022-11-01T00:49:06.273Z,86.24
2022-11-01T00:51:34.159Z,86.10
2022-11-01T00:54:01.978Z,86.28
2022-11-01T00:56:29.912Z,86.62
2022-11-01T00:58:58.104Z,86.60
2022-11-01T01:01:26.167Z,86.52
2022-11-01T01:03:54.324Z,86.76
2022-11-01T01:06:22.093Z,86.27
2022-11-01T01:08:50.523Z,86.85
2022-11-01T01:11:18.332Z,86.66
2022-11-01T01:13:46.888Z,86.76
2022-11-01T01:16:14.809Z,87.58
2022-11-01T01:18:43.311Z,88.04
2022-11-01T01:21:11.430Z,88.49
2022-11-01T01:23:39.680Z,88.88
2022-11-01T01:26:08.619Z,88.96
2022-11-01T01:28:41.693Z,88.77
2022-11-01T01:31:13.109Z,88.33
2022-11-01T01:33:42.243Z,88.41
2022-11-01T01:36:10.074Z,88.25
2022-11-01T01:38:38.082Z,88.26
2022-11-01T01:41:24.757Z,87.97
2022-11-01T01:43:52.608Z,89.13
2022-11-01T01:46:20.494Z,89.09
2022-11-01T01:48:52.050Z,90.06
2022-11-01T01:51:21.846Z,89.76
2022-11-01T01:53:51.884Z,90.38
2022-11-01T01:56:35.701Z,91.04
2022-11-01T01:59:08.292Z,90.03
2022-11-01T02:01:38.162Z,89.59
2022-11-01T02:04:09.360Z,90.43
2022-11-01T02:06:37.415Z,91.11
2022-11-01T02:09:05.587Z,91.56
2022-11-01T02:11:34.533Z,90.86
2022-11-01T02:14:03.335Z,91.01
2022-11-01T02:16:55.602Z,90.30
2022-11-01T02:20:07.707Z,91.00
2022-11-01T02:23:03.859Z,90.64
2022-11-01T02:25:34.965Z,90.25
2022-11-01T02:28:22.407Z,89.98
2022-11-01T02:31:28.121Z,90.04
2022-11-01T02:34:01.679Z,89.96
2022-11-01T02:36:40.748Z,89.68
2022-11-01T02:39:30.919Z,89.77
2022-11-01T02:42:12.021Z,89.57
2022-11-01T02:44:43.265Z,89.39
2022-11-01T02:47:12.344Z,89.32
2022-11-01T02:49:47.464Z,89.18
2022-11-01T02:52:24.970Z,89.34
2022-11-01T02:54:54.019Z,89.25
2022-11-01T02:57:34.645Z,88.96
2022-11-01T03:00:19.903Z,88.96
2022-11-01T03:02:48.780Z,88.98
2022-11-01T03:05:55.872Z,89.14
2022-11-01T03:08:32.561Z,88.58
2022-11-01T03:11:04.575Z,88.70
2022-11-01T03:13:44.884Z,88.65
2022-11-01T03:16:28.102Z,88.13
2022-11-01T03:19:23.714Z,88.10
2022-11-01T03:21:53.200Z,88.32
2022-11-01T03:24:43.910Z,88.54
2022-11-01T03:27:32.811Z,87.89
2022-11-01T03:30:05.936Z,87.96
2022-11-01T03:32:46.076Z,87.93
2022-11-01T03:35:17.098Z,87.75
2022-11-01T03:37:44.883Z,87.76
2022-11-01T03:40:13.564Z,87.78
2022-11-01T03:42:44.871Z,87.41
2022-11-01T03:45:12.716Z,87.45
2022-11-01T03:47:42.009Z,87.91
2022-11-01T03:50:23.160Z,88.26
2022-11-01T03:52:51.046Z,88.01
2022-11-01T03:55:19.368Z,88.28
2022-11-01T03:57:54.804Z,88.40
2022-11-01T04:00:23.394Z,88.55
2022-11-01T04:02:53.314Z,88.91
2022-11-01T04:05:22.056Z,88.90
2022-11-01T04:07:51.605Z,89.22
2022-11-01T04:10:19.770Z,89.21
2022-11-01T04:12:49.158Z,88.70
2022-11-01T04:15:36.327Z,88.82
2022-11-01T04:18:53.260Z,88.90
2022-11-01T04:21:23.477Z,88.66
2022-11-01T04:23:51.315Z,88.95
2022-11-01T04:26:22.585Z,89.13
2022-11-01T04:28:57.794Z,88.91
2022-11-01T04:31:37.127Z,88.76
2022-11-01T04:34:05.479Z,89.24
2022-11-01T04:36:33.845Z,89.20
2022-11-01T04:39:02.173Z,89.02
2022-11-01T04:41:30.553Z,88.99
2022-11-01T04:44:00.191Z,89.10
2022-11-01T04:46:31.955Z,88.78
2022-11-01T04:48:59.371Z,88.56
2022-11-01T04:51:27.250Z,88.96
2022-11-01T04:53:55.179Z,89.02
2022-11-01T04:56:22.883Z,88.70
2022-11-01T04:58:50.982Z,88.41
2022-11-01T05:01:18.801Z,88.24
2022-11-01T05:03:48.480Z,88.00
2022-11-01T05:06:16.596Z,87.93
2022-11-01T05:08:44.377Z,88.22
2022-11-01T05:11:14.453Z,88.05
2022-11-01T05:13:44.627Z,87.84
2022-11-01T05:16:20.661Z,88.16
2022-11-01T05:18:49.001Z,87.85
2022-11-01T05:21:18.284Z,87.84
2022-11-01T05:23:49.919Z,87.49
2022-11-01T05:26:17.758Z,87.41
2022-11-01T05:28:48.212Z,87.08
2022-11-01T05:31:16.120Z,87.19
2022-11-01T05:33:43.792Z,87.01
2022-11-01T05:36:11.751Z,86.46
2022-11-01T05:38:40.593Z,86.30
2022-11-01T05:41:09.185Z,85.82
2022-11-01T05:43:36.904Z,85.90
2022-11-01T05:46:05.901Z,86.05
2022-11-01T05:48:34.025Z,85.48
2022-11-01T05:51:01.828Z,85.28
2022-11-01T05:53:29.710Z,85.05
2022-11-01T05:55:57.698Z,84.23
2022-11-01T05:58:29.572Z,84.64
2022-11-01T06:00:59.561Z,83.64
2022-11-01T06:03:27.852Z,83.07
2022-11-01T06:05:55.938Z,83.28
2022-11-01T06:08:23.861Z,82.62
2022-11-01T06:10:51.866Z,82.01
2022-11-01T06:13:19.658Z,81.44
2022-11-01T06:15:48.097Z,81.57
2022-11-01T06:18:15.964Z,81.21
2022-11-01T06:20:44.316Z,82.06
2022-11-01T06:23:13.403Z,82.44
2022-11-01T06:25:42.628Z,81.63
2022-11-01T06:28:10.873Z,81.34
2022-11-01T06:30:41.810Z,82.26
2022-11-01T06:33:10.265Z,81.14
2022-11-01T06:35:38.944Z,80.91
2022-11-01T06:38:07.168Z,80.82
2022-11-01T06:40:37.928Z,80.44
2022-11-01T06:43:06.652Z,80.80
2022-11-01T06:45:34.855Z,80.46
2022-11-01T06:48:03.175Z,80.00
2022-11-01T06:50:31.710Z,80.38
2022-11-01T06:53:00.246Z,80.13
2022-11-01T06:55:28.986Z,79.74
2022-11-01T06:57:58.025Z,79.27
2022-11-01T07:00:26.477Z,78.99
2022-11-01T07:03:15.072Z,79.20
2022-11-01T07:05:43.904Z,78.89
2022-11-01T07:08:13.198Z,79.22
2022-11-01T07:10:43.229Z,78.53
2022-11-01T07:13:12.273Z,78.35
2022-11-01T07:15:40.594Z,77.66
2022-11-01T07:18:09.601Z,78.12
2022-11-01T07:20:43.257Z,77.05
2022-11-01T07:23:14.754Z,77.27
2022-11-01T07:25:44.032Z,77.27
2022-11-01T07:28:12.965Z,76.51
2022-11-01T07:30:43.909Z,76.64
2022-11-01T07:33:12.028Z,76.26
2022-11-01T07:35:39.932Z,75.69
2022-11-01T07:38:12.457Z,75.89
2022-11-01T07:40:41.511Z,76.98
2022-11-01T07:43:19.541Z,76.21
2022-11-01T07:45:47.935Z,75.80
2022-11-01T07:48:17.499Z,76.14
2022-11-01T07:50:46.038Z,75.70
2022-11-01T07:53:18.536Z,75.33
2022-11-01T07:55:48.325Z,74.71
2022-11-01T07:58:16.482Z,74.12
2022-11-01T08:00:49.866Z,74.48
2022-11-01T08:03:19.451Z,72.97
2022-11-01T08:05:48.702Z,73.45
2022-11-01T08:08:16.808Z,73.24
2022-11-01T08:10:50.757Z,73.60
2022-11-01T08:13:23.460Z,72.31
2022-11-01T08:15:53.136Z,72.51
2022-11-01T08:18:22.889Z,72.38
2022-11-01T08:20:51.021Z,70.30
2022-11-01T08:23:18.949Z,69.05
2022-11-01T08:25:46.733Z,67.29
2022-11-01T08:28:17.048Z,67.12
2022-11-01T08:30:46.003Z,68.63
2022-11-01T08:33:36.251Z,65.50
2022-11-01T08:36:02.291Z,65.37
2022-11-01T08:38:31.123Z,63.49
2022-11-01T08:40:59.476Z,64.38
2022-11-01T08:43:31.854Z,63.96
2022-11-01T08:46:00.832Z,61.56
2022-11-01T08:48:28.770Z,60.88
2022-11-01T08:50:56.480Z,61.53
2022-11-01T08:53:27.146Z,60.54
2022-11-01T08:55:56.330Z,60.58
2022-11-01T08:58:25.243Z,60.29
2022-11-01T09:00:53.784Z,60.52
2022-11-01T09:03:21.825Z,59.19
2022-11-01T09:05:50.010Z,60.10
2022-11-01T09:08:18.336Z,59.80
2022-11-01T09:10:48.676Z,59.88
2022-11-01T09:13:17.016Z,59.13
2022-11-01T09:15:48.401Z,56.61
2022-11-01T09:18:16.624Z,57.51
2022-11-01T09:20:45.959Z,57.63
2022-11-01T09:23:16.568Z,55.82
2022-11-01T09:25:48.646Z,56.03
2022-11-01T09:28:17.093Z,56.77
2022-11-01T09:30:50.173Z,56.62
2022-11-01T09:33:30.041Z,55.29
2022-11-01T09:35:59.760Z,55.57
2022-11-01T09:38:27.729Z,55.31
2022-11-01T09:40:59.545Z,56.85
2022-11-01T09:43:28.771Z,54.96
2022-11-01T09:45:59.327Z,54.81
2022-11-01T09:48:30.946Z,53.50
2022-11-01T09:51:07.936Z,53.52
2022-11-01T09:53:36.195Z,52.60
2022-11-01T09:56:13.222Z,52.63
2022-11-01T09:58:51.329Z,51.48
2022-11-01T10:01:47.759Z,51.85
2022-11-01T10:04:23.210Z,51.29
2022-11-01T10:06:56.657Z,51.76
2022-11-01T10:10:15.875Z,51.21
2022-11-01T10:13:11.524Z,51.63
2022-11-01T10:16:04.256Z,51.44
2022-11-01T10:18:33.482Z,50.78
2022-11-01T10:21:04.872Z,51.65
2022-11-01T10:23:49.540Z,51.28
2022-11-01T10:26:28.820Z,51.56
2022-11-01T10:28:59.520Z,51.98
2022-11-01T10:31:27.787Z,51.15
2022-11-01T10:33:57.342Z,51.79
2022-11-01T10:39:54.745Z,52.01
2022-11-01T10:42:21.920Z,50.86
2022-11-01T10:45:09.023Z,51.31
2022-11-01T10:47:38.761Z,51.19
2022-11-01T10:50:12.516Z,51.84
2022-11-01T10:52:52.331Z,51.23
2022-11-01T10:55:22.186Z,51.15
2022-11-01T10:57:53.473Z,49.81
2022-11-01T11:00:24.039Z,50.84
2022-11-01T11:02:54.895Z,49.39
2022-11-01T11:05:26.548Z,50.70
2022-11-01T11:07:57.933Z,48.47
2022-11-01T11:10:27.309Z,49.36
2022-11-01T11:13:01.740Z,48.62
2022-11-01T11:15:51.319Z,48.75
2022-11-01T11:18:21.937Z,47.44
2022-11-01T11:21:02.643Z,47.36
2022-11-01T11:23:34.156Z,47.49
2022-11-01T11:26:10.717Z,47.69
2022-11-01T11:28:44.472Z,47.15
2022-11-01T11:31:21.640Z,46.62
2022-11-01T11:33:51.807Z,47.21
2022-11-01T11:36:28.377Z,46.54
2022-11-01T11:38:56.362Z,45.27
2022-11-01T11:41:36.752Z,45.31
2022-11-01T11:44:04.538Z,45.73
2022-11-01T11:46:32.430Z,46.14
2022-11-01T11:49:04.613Z,45.66
2022-11-01T11:51:35.838Z,44.88
2022-11-01T11:54:06.564Z,45.54
2022-11-01T11:56:34.188Z,45.11
2022-11-01T11:59:08.495Z,45.01
2022-11-01T12:01:36.822Z,45.09
2022-11-01T12:04:16.223Z,45.32
2022-11-01T12:06:45.680Z,45.90
2022-11-01T12:09:37.878Z,43.56
2022-11-01T12:12:29.660Z,43.70
2022-11-01T12:14:57.800Z,43.48
2022-11-01T12:17:29.309Z,43.32
2022-11-01T12:20:10.014Z,44.37
2022-11-01T12:22:39.647Z,44.21
2022-11-01T12:25:23.664Z,43.08
2022-11-01T12:28:06.266Z,43.83
2022-11-01T12:30:36.567Z,43.49
2022-11-01T12:33:21.794Z,42.90
2022-11-01T12:35:49.940Z,43.26
2022-11-01T12:38:41.026Z,43.60
2022-11-01T12:41:46.552Z,43.76
2022-11-01T12:44:34.303Z,43.83
2022-11-01T12:47:27.655Z,43.88
2022-11-01T12:50:03.993Z,42.52
2022-11-01T12:52:38.758Z,42.71
2022-11-01T12:55:15.302Z,42.45
2022-11-01T12:57:46.190Z,43.24
2022-11-01T13:00:18.639Z,42.92
2022-11-01T13:02:59.622Z,42.58
2022-11-01T13:06:05.566Z,42.68
2022-11-01T13:08:44.324Z,42.81
2022-11-01T13:11:50.739Z,43.05
2022-11-01T13:14:25.428Z,43.33
2022-11-01T13:16:59.713Z,42.31
2022-11-01T13:19:43.733Z,42.83
2022-11-01T13:22:22.514Z,42.43
2022-11-01T13:25:01.706Z,43.08
2022-11-01T13:27:41.642Z,43.35
2022-11-01T13:30:13.286Z,43.78
2022-11-01T13:33:11.787Z,43.00
2022-11-01T13:35:55.092Z,44.73
2022-11-01T13:38:32.668Z,45.66
2022-11-01T13:41:22.551Z,46.35
2022-11-01T13:43:53.693Z,47.26
2022-11-01T13:46:30.689Z,48.29
2022-11-01T13:49:33.416Z,48.49
2022-11-01T13:52:08.531Z,48.85
2022-11-01T13:54:53.661Z,49.54
2022-11-01T13:57:25.096Z,50.66
2022-11-01T14:00:07.182Z,50.65
2022-11-01T14:02:54.334Z,50.90
2022-11-01T14:05:22.628Z,51.29
2022-11-01T14:07:53.538Z,51.60
2022-11-01T14:10:28.435Z,51.58
2022-11-01T14:13:08.663Z,51.80
2022-11-01T14:15:54.997Z,52.66
2022-11-01T14:18:23.089Z,52.99
2022-11-01T14:20:52.115Z,53.55
2022-11-01T14:23:30.024Z,54.19
2022-11-01T14:26:20.342Z,54.68
2022-11-01T14:28:54.526Z,54.68
2022-11-01T14:31:24.757Z,55.51
2022-11-01T14:33:56.102Z,55.83
2022-11-01T14:36:29.915Z,56.00
2022-11-01T14:39:09.355Z,56.21
2022-11-01T14:41:39.431Z,56.33
2022-11-01T14:44:15.349Z,57.05
2022-11-01T14:46:46.688Z,57.66
2022-11-01T14:49:23.810Z,57.97
2022-11-01T14:52:14.135Z,58.46
2022-11-01T14:54:45.210Z,58.27
2022-11-01T14:57:26.044Z,58.82
2022-11-01T14:59:54.324Z,59.27
2022-11-01T15:02:22.952Z,60.56
2022-11-01T15:04:52.740Z,60.77
2022-11-01T15:07:29.536Z,60.78
2022-11-01T15:10:00.312Z,61.59
2022-11-01T15:12:30.289Z,61.46
2022-11-01T15:15:01.748Z,62.15
2022-11-01T15:17:31.663Z,62.38
2022-11-01T15:19:59.816Z,62.09
2022-11-01T15:22:28.596Z,62.68
2022-11-01T15:25:04.964Z,62.88
2022-11-01T15:27:40.050Z,63.18
2022-11-01T15:30:08.288Z,63.06
2022-11-01T15:32:36.264Z,63.12
2022-11-01T15:35:16.529Z,63.35
2022-11-01T15:37:49.266Z,63.26
2022-11-01T15:40:27.883Z,63.69
2022-11-01T15:43:00.018Z,63.39
2022-11-01T15:45:33.176Z,63.19
2022-11-01T15:48:09.001Z,63.86
2022-11-01T15:50:38.655Z,63.90
2022-11-01T15:53:11.299Z,64.08
2022-11-01T15:55:44.437Z,63.43
2022-11-01T15:58:18.507Z,64.04
2022-11-01T16:00:52.629Z,64.02
2022-11-01T16:03:52.895Z,64.26
2022-11-01T16:06:26.988Z,63.63
2022-11-01T16:08:59.875Z,64.13
2022-11-01T16:11:29.483Z,64.27
2022-11-01T16:14:03.530Z,64.17
2022-11-01T16:16:55.127Z,64.56
2022-11-01T16:19:51.681Z,64.95
2022-11-01T16:22:44.704Z,64.38
2022-11-01T16:25:16.500Z,65.05
2022-11-01T16:27:52.251Z,65.41
2022-11-01T16:30:39.191Z,64.49
2022-11-01T16:33:19.402Z,64.29
2022-11-01T16:35:49.721Z,64.25
2022-11-01T16:38:36.113Z,64.50
2022-11-01T16:41:19.131Z,64.76
2022-11-01T16:44:13.844Z,64.58
2022-11-01T16:46:43.020Z,64.90
2022-11-01T16:49:24.525Z,64.81
2022-11-01T16:51:52.624Z,64.49
2022-11-01T16:54:20.403Z,64.64
2022-11-01T16:56:55.899Z,64.08
2022-11-01T16:59:39.299Z,64.48
2022-11-01T17:02:28.167Z,64.11
2022-11-01T17:05:06.636Z,64.48
2022-11-01T17:07:37.040Z,64.94
2022-11-01T17:10:21.296Z,64.85
2022-11-01T17:12:50.384Z,64.84
2022-11-01T17:15:19.707Z,64.82
2022-11-01T17:17:49.895Z,65.17
2022-11-01T17:20:23.922Z,64.87
2022-11-01T17:22:53.623Z,65.54
2022-11-01T17:25:25.135Z,65.19
2022-11-01T17:27:52.942Z,65.74
2022-11-01T17:30:21.215Z,65.67
2022-11-01T17:32:49.098Z,66.28
2022-11-01T17:35:20.349Z,66.01
2022-11-01T17:37:50.722Z,66.30
2022-11-01T17:40:22.988Z,65.60
2022-11-01T17:42:51.039Z,65.95
2022-11-01T17:45:19.761Z,65.61
2022-11-01T17:47:47.727Z,65.97
2022-11-01T17:50:16.340Z,66.40
2022-11-01T17:52:44.096Z,66.79
2022-11-01T17:55:12.369Z,67.21
2022-11-01T17:57:41.582Z,67.72
2022-11-01T18:00:11.166Z,68.14
2022-11-01T18:02:45.195Z,67.99
2022-11-01T18:05:14.111Z,68.50
2022-11-01T18:07:43.856Z,69.30
2022-11-01T18:10:19.044Z,70.06
2022-11-01T18:13:11.006Z,71.52
2022-11-01T18:15:43.219Z,71.99
2022-11-01T18:19:00.754Z,72.42
2022-11-01T18:21:43.498Z,72.91
2022-11-01T18:24:19.848Z,72.39
2022-11-01T18:26:49.988Z,73.07
2022-11-01T18:29:24.221Z,73.41
2022-11-01T18:32:05.435Z,73.51
2022-11-01T18:34:55.627Z,73.49
2022-11-01T18:37:45.103Z,74.03
2022-11-01T18:40:14.299Z,74.71
2022-11-01T18:42:42.875Z,74.84
2022-11-01T18:45:26.815Z,75.16
2022-11-01T18:47:59.315Z,75.66
2022-11-01T18:50:27.133Z,74.98
2022-11-01T18:53:23.028Z,75.18
2022-11-01T18:55:52.151Z,75.45
2022-11-01T18:58:25.676Z,75.61
2022-11-01T19:01:13.928Z,75.83
2022-11-01T19:03:42.396Z,76.07
2022-11-01T19:06:20.802Z,76.01
2022-11-01T19:08:56.623Z,76.74
2022-11-01T19:11:28.217Z,77.07
2022-11-01T19:13:58.764Z,76.81
2022-11-01T19:16:26.667Z,77.16
2022-11-01T19:18:54.960Z,77.52
2022-11-01T19:21:23.793Z,77.19
2022-11-01T19:23:58.411Z,77.28
2022-11-01T19:26:33.486Z,77.68
2022-11-01T19:29:01.454Z,77.84
2022-11-01T19:31:31.450Z,77.96
2022-11-01T19:34:02.112Z,77.44
2022-11-01T19:39:25.310Z,78.53
2022-11-01T19:41:56.217Z,77.97
2022-11-01T19:44:24.805Z,77.64
2022-11-01T19:47:18.061Z,77.68
2022-11-01T19:49:45.756Z,77.52
2022-11-01T19:52:25.107Z,78.19
2022-11-01T19:54:53.745Z,78.18
2022-11-01T19:57:31.610Z,78.41
2022-11-01T20:00:15.002Z,78.18
2022-11-01T20:02:45.502Z,78.17
2022-11-01T20:05:34.292Z,78.84
2022-11-01T20:08:14.687Z,78.30
2022-11-01T20:10:43.411Z,78.29
2022-11-01T20:13:11.642Z,78.22
2022-11-01T20:15:40.212Z,78.63
2022-11-01T20:18:08.297Z,78.31
2022-11-01T20:20:37.297Z,78.33
2022-11-01T20:23:25.389Z,77.81
2022-11-01T20:25:53.612Z,78.80
2022-11-01T20:28:21.801Z,78.38
2022-11-01T20:30:49.667Z,78.80
2022-11-01T20:33:17.851Z,78.53
2022-11-01T20:35:45.951Z,78.67
2022-11-01T20:38:13.923Z,78.23
2022-11-01T20:40:41.818Z,78.82
2022-11-01T20:43:09.837Z,77.87
2022-11-01T20:45:37.963Z,77.70
2022-11-01T20:48:07.616Z,77.28
2022-11-01T20:50:36.298Z,77.54
2022-11-01T20:53:05.745Z,77.89
2022-11-01T20:55:34.158Z,77.43
2022-11-01T20:58:02.679Z,77.22
2022-11-01T21:00:32.069Z,77.02
2022-11-01T21:03:00.240Z,76.89
2022-11-01T21:05:29.664Z,77.19
2022-11-01T21:08:00.534Z,76.74
2022-11-01T21:10:33.815Z,76.46
2022-11-01T21:13:02.838Z,76.78
2022-11-01T21:15:38.587Z,75.86
2022-11-01T21:18:12.504Z,76.23
2022-11-01T21:20:49.492Z,75.79
2022-11-01T21:23:32.457Z,75.26
2022-11-01T21:26:01.436Z,75.01
2022-11-01T21:28:42.375Z,74.83
2022-11-01T21:31:10.261Z,74.63
2022-11-01T21:33:39.642Z,74.31
2022-11-01T21:36:35.124Z,74.14
2022-11-01T21:39:10.147Z,74.17
2022-11-01T21:41:51.989Z,73.86
2022-11-01T21:44:56.002Z,74.32
2022-11-01T21:47:25.496Z,74.33
2022-11-01T21:49:53.462Z,74.43
2022-11-01T21:52:21.608Z,74.21
2022-11-01T21:54:49.816Z,74.12
2022-11-01T21:57:17.990Z,74.47
2022-11-01T21:59:45.759Z,75.09
2022-11-01T22:02:14.997Z,75.23
2022-11-01T22:04:44.177Z,76.07
2022-11-01T22:07:12.166Z,75.93
2022-11-01T22:09:40.098Z,76.75
2022-11-01T22:12:08.170Z,77.20
2022-11-01T22:14:36.036Z,77.36
2022-11-01T22:17:05.741Z,77.58
2022-11-01T22:19:33.647Z,77.36
2022-11-01T22:22:02.149Z,77.73
2022-11-01T22:24:30.326Z,77.90
2022-11-01T22:26:59.192Z,77.81
2022-11-01T22:29:27.266Z,78.33
2022-11-01T22:31:55.662Z,79.02
2022-11-01T22:34:23.839Z,79.45
2022-11-01T22:36:53.032Z,79.57
2022-11-01T22:39:21.622Z,80.15
2022-11-01T22:41:49.718Z,80.44
2022-11-01T22:44:19.496Z,81.56
2022-11-01T22:46:53.599Z,81.67
2022-11-01T22:49:30.979Z,81.39
2022-11-01T22:52:04.158Z,82.51
2022-11-01T22:54:41.112Z,82.92
2022-11-01T22:57:08.848Z,83.01
2022-11-01T23:00:00.639Z,83.44
2022-11-01T23:02:33.869Z,83.25
2022-11-01T23:05:06.295Z,82.79
2022-11-01T23:07:48.739Z,82.38
2022-11-01T23:10:31.112Z,82.22
2022-11-01T23:13:29.862Z,82.86
2022-11-01T23:16:11.310Z,83.05
2022-11-01T23:18:40.196Z,82.61
2022-11-01T23:21:08.110Z,82.82
2022-11-01T23:23:44.259Z,82.79
2022-11-01T23:26:12.264Z,82.88
2022-11-01T23:28:45.686Z,83.15
2022-11-01T23:31:13.624Z,83.24
2022-11-01T23:33:43.381Z,83.80
2022-11-01T23:36:19.676Z,84.00
2022-11-01T23:38:55.665Z,84.56
2022-11-01T23:41:42.861Z,84.65
2022-11-01T23:44:34.729Z,85.19
2022-11-01T23:47:25.278Z,85.16
2022-11-01T23:50:22.337Z,85.29
2022-11-01T23:52:54.743Z,85.61
2022-11-01T23:55:26.527Z,85.92
2022-11-01T23:57:55.779Z,86.21
